Terminal Aerodrome Forecast
Issued by NWS

Home | Current Version | Previous Version | Text Only | Print | Product List | Glossary On
Versions: 1 2 3 4 5 6 7 8 9 10 11 12 13 14 15
932
FTUS46 KSGX 252324
TAFSNA
TAF
KSNA 252324Z 2600/2624 21009KT P6SM FEW020 BKN110
     FM260200 VRB05KT P6SM SCT018
     FM260500 VRB04KT P6SM BKN025
     FM261800 25007KT P6SM SCT025=

USA.gov is the U.S. government's official web portal to all federal, state and local government web resources and services.